createdAt,value
2018-05-31T00:01:43.354Z,39.85
2018-05-31T00:04:10.833Z,39.90
2018-05-31T00:06:39.077Z,42.03
2018-05-31T00:09:06.575Z,38.63
2018-05-31T00:11:34.826Z,41.67
2018-05-31T00:14:02.321Z,45.20
2018-05-31T00:16:29.819Z,42.22
2018-05-31T00:18:57.332Z,44.60
2018-05-31T00:21:24.836Z,46.90
2018-05-31T00:23:52.343Z,44.13
2018-05-31T00:26:19.874Z,42.38
2018-05-31T00:28:47.368Z,45.38
2018-05-31T00:31:14.854Z,45.20
2018-05-31T00:33:42.342Z,46.33
2018-05-31T00:36:09.854Z,44.58
2018-05-31T00:38:37.322Z,44.97
2018-05-31T00:41:04.807Z,42.35
2018-05-31T00:43:32.299Z,44.28
2018-05-31T00:46:00.558Z,48.30
2018-05-31T00:48:28.039Z,43.25
2018-05-31T00:50:55.556Z,46.08
2018-05-31T00:53:23.094Z,48.13
2018-05-31T00:56:02.438Z,52.00
2018-05-31T00:58:29.933Z,49.50
2018-05-31T01:00:58.187Z,47.65
2018-05-31T01:03:25.713Z,52.28
2018-05-31T01:05:53.213Z,49.50
2018-05-31T01:08:20.709Z,52.08
2018-05-31T01:10:48.202Z,49.47
2018-05-31T01:13:15.690Z,50.40
2018-05-31T01:15:43.180Z,51.22
2018-05-31T01:18:10.680Z,51.25
2018-05-31T01:20:38.158Z,50.47
2018-05-31T01:23:05.663Z,50.08
2018-05-31T01:25:33.142Z,47.62
2018-05-31T01:28:00.633Z,51.78
2018-05-31T01:30:28.157Z,49.00
2018-05-31T01:32:55.650Z,50.20
2018-05-31T01:35:23.143Z,49.30
2018-05-31T01:37:50.658Z,49.60
2018-05-31T01:40:18.175Z,54.58
2018-05-31T01:42:45.646Z,48.00
2018-05-31T01:45:13.135Z,52.92
2018-05-31T01:47:40.646Z,54.60
2018-05-31T01:50:08.122Z,50.53
2018-05-31T01:52:35.625Z,53.47
2018-05-31T01:55:03.967Z,54.22
2018-05-31T01:57:31.440Z,53.75
2018-05-31T01:59:58.922Z,51.97
2018-05-31T02:02:27.179Z,55.60
2018-05-31T02:04:54.699Z,51.30
2018-05-31T02:07:22.191Z,51.92
2018-05-31T02:09:49.655Z,52.80
2018-05-31T02:12:17.144Z,53.60
2018-05-31T02:14:44.667Z,52.60
2018-05-31T02:17:12.164Z,55.67
2018-05-31T02:19:39.679Z,51.42
2018-05-31T02:22:07.226Z,55.33
2018-05-31T02:24:34.706Z,56.50
2018-05-31T02:27:02.173Z,57.33
2018-05-31T02:29:30.422Z,62.35
2018-05-31T02:31:57.901Z,57.22
2018-05-31T02:34:26.149Z,56.22
2018-05-31T02:36:53.632Z,57.58
2018-05-31T02:39:21.893Z,53.20
2018-05-31T02:41:49.379Z,55.03
2018-05-31T02:44:17.644Z,59.40
2018-05-31T02:46:45.906Z,56.05
2018-05-31T02:49:13.388Z,52.17
2018-05-31T02:51:41.643Z,54.17
2018-05-31T02:54:09.914Z,54.45
2018-05-31T02:56:37.425Z,57.03
2018-05-31T02:59:04.931Z,53.17
2018-05-31T03:01:32.429Z,54.30
2018-05-31T03:03:59.929Z,54.95
2018-05-31T03:06:27.412Z,56.50
2018-05-31T03:08:54.954Z,55.88
2018-05-31T03:11:22.442Z,54.58
2018-05-31T03:13:50.699Z,57.08
2018-05-31T03:16:18.238Z,56.75
2018-05-31T03:18:45.715Z,56.03
2018-05-31T03:21:13.184Z,51.55
2018-05-31T03:23:41.447Z,51.37
2018-05-31T03:26:08.939Z,49.47
2018-05-31T03:28:36.447Z,54.75
2018-05-31T03:31:03.927Z,52.47
2018-05-31T03:33:32.173Z,49.47
2018-05-31T03:35:59.684Z,54.03
2018-05-31T03:38:27.196Z,58.38
2018-05-31T03:40:54.707Z,56.37
2018-05-31T03:43:22.206Z,55.17
2018-05-31T03:45:49.717Z,56.03
2018-05-31T03:48:17.202Z,53.13
2018-05-31T03:50:44.686Z,52.60
2018-05-31T03:53:12.158Z,49.67
2018-05-31T03:55:39.711Z,52.60
2018-05-31T03:58:07.196Z,49.33
2018-05-31T04:00:34.754Z,51.80
2018-05-31T04:03:02.994Z,52.13
2018-05-31T04:05:30.470Z,50.72
2018-05-31T04:07:57.995Z,54.20
2018-05-31T04:10:25.558Z,49.72
2018-05-31T04:12:53.029Z,47.72
2018-05-31T04:15:20.521Z,50.83
2018-05-31T04:17:48.783Z,58.08
2018-05-31T04:20:16.261Z,48.67
2018-05-31T04:22:43.750Z,43.75
2018-05-31T04:25:11.230Z,49.50
2018-05-31T04:27:38.716Z,52.08
2018-05-31T04:30:06.983Z,52.13
2018-05-31T04:32:34.477Z,45.78
2018-05-31T04:35:01.982Z,46.65
2018-05-31T04:37:29.492Z,46.92
2018-05-31T04:39:57.008Z,42.45
2018-05-31T04:42:24.517Z,52.85
2018-05-31T04:44:51.998Z,44.47
2018-05-31T04:47:19.478Z,44.72
2018-05-31T04:49:46.992Z,44.05
2018-05-31T04:52:14.466Z,50.40
2018-05-31T04:54:41.951Z,47.55
2018-05-31T04:57:09.431Z,48.58
2018-05-31T04:59:37.691Z,50.95
2018-05-31T05:02:05.225Z,47.05
2018-05-31T05:04:32.693Z,46.03
2018-05-31T05:07:00.230Z,44.80
2018-05-31T05:09:27.719Z,43.75
2018-05-31T05:11:55.244Z,44.58
2018-05-31T05:14:23.441Z,44.05
2018-05-31T05:16:50.935Z,40.33
2018-05-31T05:19:19.202Z,42.00
2018-05-31T05:21:47.454Z,40.20
2018-05-31T05:24:14.939Z,40.70
2018-05-31T05:26:43.186Z,43.08
2018-05-31T05:29:10.723Z,36.65
2018-05-31T05:31:38.231Z,40.05
2018-05-31T05:34:06.502Z,37.83
2018-05-31T05:36:34.746Z,36.10
2018-05-31T05:39:02.637Z,31.85
2018-05-31T05:41:30.122Z,34.50
2018-05-31T05:43:57.729Z,33.15
2018-05-31T05:46:25.211Z,32.15
2018-05-31T05:48:52.691Z,32.85
2018-05-31T05:51:20.960Z,33.08
2018-05-31T05:53:49.206Z,34.88
2018-05-31T05:56:16.702Z,33.20
2018-05-31T05:58:44.300Z,30.02
2018-05-31T06:01:11.792Z,31.62
2018-05-31T06:03:39.272Z,31.73
2018-05-31T06:06:07.543Z,32.35
2018-05-31T06:08:35.779Z,30.52
2018-05-31T06:11:03.277Z,32.35
2018-05-31T06:13:31.567Z,34.50
2018-05-31T06:15:59.069Z,30.80
2018-05-31T06:18:26.563Z,28.90
2018-05-31T06:20:54.889Z,34.80
2018-05-31T06:23:23.192Z,28.87
2018-05-31T06:25:50.694Z,27.65
2018-05-31T06:28:18.219Z,29.50
2018-05-31T06:30:45.714Z,29.37
2018-05-31T06:33:13.206Z,29.12
2018-05-31T06:35:40.695Z,32.15
2018-05-31T06:38:08.180Z,25.75
2018-05-31T06:40:36.460Z,28.05
2018-05-31T06:43:03.937Z,26.70
2018-05-31T06:45:31.411Z,23.77
2018-05-31T06:47:58.899Z,22.33
2018-05-31T06:50:27.203Z,23.98
2018-05-31T06:52:55.457Z,29.27
2018-05-31T06:55:23.019Z,26.00
2018-05-31T06:57:50.492Z,26.52
2018-05-31T07:00:18.725Z,22.05
2018-05-31T07:02:46.201Z,23.30
2018-05-31T07:05:13.678Z,24.63
2018-05-31T07:07:41.918Z,22.55
2018-05-31T07:10:09.392Z,23.05
2018-05-31T07:12:36.869Z,23.08
2018-05-31T07:15:05.166Z,22.52
2018-05-31T07:17:32.653Z,25.75
2018-05-31T07:20:00.142Z,24.60
2018-05-31T07:22:27.672Z,24.05
2018-05-31T07:24:55.174Z,24.90
2018-05-31T07:27:23.416Z,21.95
2018-05-31T07:29:50.874Z,24.90
2018-05-31T07:32:18.354Z,26.48
2018-05-31T07:34:46.603Z,24.58
2018-05-31T07:37:14.089Z,26.10
2018-05-31T07:39:41.578Z,23.02
2018-05-31T07:42:09.064Z,22.42
2018-05-31T07:44:36.542Z,23.73
2018-05-31T07:47:04.067Z,21.23
2018-05-31T07:49:31.556Z,22.60
2018-05-31T07:51:59.049Z,26.05
2018-05-31T07:54:27.298Z,23.67
2018-05-31T07:56:54.779Z,21.20
2018-05-31T07:59:23.026Z,20.90
2018-05-31T08:01:50.498Z,23.90
2018-05-31T08:04:18.003Z,23.23
2018-05-31T08:06:45.465Z,20.05
2018-05-31T08:09:12.935Z,20.83
2018-05-31T08:11:40.482Z,19.37
2018-05-31T08:14:08.033Z,21.75
2018-05-31T08:16:35.572Z,19.30
2018-05-31T08:19:03.047Z,21.33
2018-05-31T08:21:30.527Z,25.62
2018-05-31T08:23:58.054Z,27.50
2018-05-31T08:26:25.518Z,23.33
2018-05-31T08:28:52.990Z,21.12
2018-05-31T08:31:20.465Z,22.58
2018-05-31T08:33:47.944Z,25.20
2018-05-31T08:36:15.466Z,23.20
2018-05-31T08:38:42.943Z,19.50
2018-05-31T08:41:10.471Z,20.58
2018-05-31T08:43:37.965Z,19.77
2018-05-31T08:46:05.466Z,22.02
2018-05-31T08:48:32.951Z,19.95
2018-05-31T08:51:00.449Z,20.77
2018-05-31T08:53:27.907Z,16.95
2018-05-31T08:55:55.392Z,18.23
2018-05-31T08:58:23.645Z,17.77
2018-05-31T09:00:51.114Z,18.55
2018-05-31T09:03:19.379Z,16.70
2018-05-31T09:05:47.605Z,15.68
2018-05-31T09:08:15.138Z,14.52
2018-05-31T09:10:42.613Z,15.80
2018-05-31T09:13:10.106Z,16.90
2018-05-31T09:15:37.591Z,16.98
2018-05-31T09:18:05.841Z,14.20
2018-05-31T09:20:33.322Z,16.23
2018-05-31T09:23:01.582Z,17.30
2018-05-31T09:25:29.062Z,13.32
2018-05-31T09:27:57.305Z,11.55
2018-05-31T09:30:24.785Z,12.45
2018-05-31T09:32:53.029Z,16.67
2018-05-31T09:35:20.542Z,13.88
2018-05-31T09:37:48.014Z,12.68
2018-05-31T09:40:15.529Z,11.12
2018-05-31T09:42:43.012Z,14.93
2018-05-31T09:45:10.487Z,12.48
2018-05-31T09:47:37.995Z,12.93
2018-05-31T09:50:05.502Z,11.55
2018-05-31T09:52:32.973Z,13.73
2018-05-31T09:55:00.433Z,12.52
2018-05-31T09:57:27.915Z,12.13
2018-05-31T09:59:55.414Z,17.08
2018-05-31T10:02:23.687Z,12.82
2018-05-31T10:04:51.943Z,14.80
2018-05-31T10:07:19.431Z,11.32
2018-05-31T10:09:46.906Z,12.07
2018-05-31T10:12:14.406Z,12.00
2018-05-31T10:14:41.881Z,11.15
2018-05-31T10:17:10.179Z,11.60
2018-05-31T10:19:37.638Z,12.13
2018-05-31T10:22:05.131Z,11.12
2018-05-31T10:24:32.618Z,11.23
2018-05-31T10:27:00.131Z,11.55
2018-05-31T10:29:27.642Z,12.05
2018-05-31T10:31:55.941Z,12.52
2018-05-31T10:34:23.426Z,14.05
2018-05-31T10:36:50.890Z,13.25
2018-05-31T10:39:18.392Z,11.70
2018-05-31T10:41:46.642Z,13.13
2018-05-31T10:44:14.127Z,13.60
2018-05-31T10:46:42.366Z,11.38
2018-05-31T10:49:09.841Z,11.82
2018-05-31T10:51:37.309Z,11.32
2018-05-31T10:54:05.586Z,12.95
2018-05-31T10:56:33.849Z,12.63
2018-05-31T10:59:01.321Z,12.32
2018-05-31T11:01:29.590Z,13.50
2018-05-31T11:03:57.050Z,11.27
2018-05-31T11:06:24.530Z,12.48
2018-05-31T11:08:52.108Z,11.23
2018-05-31T11:11:19.584Z,14.25
2018-05-31T11:13:47.055Z,12.48
2018-05-31T11:16:14.525Z,12.57
2018-05-31T11:18:42.007Z,13.13
2018-05-31T11:21:10.254Z,13.15
2018-05-31T11:23:37.728Z,11.85
2018-05-31T11:26:05.259Z,12.52
2018-05-31T11:28:32.742Z,11.43
2018-05-31T11:31:00.224Z,11.88
2018-05-31T11:33:28.454Z,13.60
2018-05-31T11:35:56.205Z,14.13
2018-05-31T11:38:23.677Z,12.40
2018-05-31T11:40:51.146Z,14.75
2018-05-31T11:43:18.635Z,10.27
2018-05-31T11:45:46.869Z,12.65
2018-05-31T11:48:14.363Z,14.00
2018-05-31T11:50:42.655Z,12.45
2018-05-31T11:53:10.678Z,10.68
2018-05-31T11:55:38.205Z,11.65
2018-05-31T11:58:05.696Z,12.35
2018-05-31T12:00:33.207Z,10.52
2018-05-31T12:03:00.663Z,11.23
2018-05-31T12:05:28.171Z,11.45
2018-05-31T12:07:55.688Z,11.73
2018-05-31T12:10:23.157Z,11.27
2018-05-31T12:12:51.394Z,11.55
2018-05-31T12:15:18.903Z,11.65
2018-05-31T12:17:46.399Z,12.48
2018-05-31T12:20:14.679Z,10.93
2018-05-31T12:22:42.919Z,11.75
2018-05-31T12:25:10.447Z,12.55
2018-05-31T12:27:37.932Z,12.35
2018-05-31T12:30:05.431Z,9.52
2018-05-31T12:32:33.670Z,13.05
2018-05-31T12:35:01.158Z,14.48
2018-05-31T12:37:29.405Z,11.77
2018-05-31T12:39:56.878Z,11.07
2018-05-31T12:42:25.122Z,9.80
2018-05-31T12:44:52.602Z,11.40
2018-05-31T12:47:20.883Z,9.82
2018-05-31T12:49:48.438Z,9.80
2018-05-31T12:52:15.920Z,11.05
2018-05-31T12:54:43.399Z,10.85
2018-05-31T12:57:10.893Z,10.07
2018-05-31T12:59:38.362Z,9.77
2018-05-31T13:02:05.851Z,14.23
2018-05-31T13:04:34.099Z,9.75
2018-05-31T13:07:01.569Z,10.35
2018-05-31T13:09:29.829Z,12.68
2018-05-31T13:11:59.139Z,9.00
2018-05-31T13:14:26.643Z,12.40
2018-05-31T13:16:54.149Z,19.48
2018-05-31T13:19:21.638Z,9.30
2018-05-31T13:21:49.881Z,9.98
2018-05-31T13:24:17.388Z,9.32
2018-05-31T13:26:44.856Z,9.15
2018-05-31T13:29:12.336Z,11.52
2018-05-31T13:31:39.826Z,9.32
2018-05-31T13:34:08.053Z,10.23
2018-05-31T13:36:35.523Z,9.30
2018-05-31T13:39:03.001Z,9.32
2018-05-31T13:41:30.469Z,10.60
2018-05-31T13:43:57.954Z,7.60
2018-05-31T13:46:25.449Z,7.45
2018-05-31T13:48:52.910Z,9.50
2018-05-31T13:51:20.386Z,8.52
2018-05-31T13:53:47.879Z,10.13
2018-05-31T13:56:15.342Z,8.15
2018-05-31T13:58:42.793Z,7.45
2018-05-31T14:01:10.297Z,8.60
2018-05-31T14:03:37.789Z,10.63
2018-05-31T14:06:06.019Z,9.77
2018-05-31T14:08:34.266Z,14.77
2018-05-31T14:11:01.764Z,7.70
2018-05-31T14:13:29.236Z,7.05
2018-05-31T14:15:56.723Z,11.35
2018-05-31T14:18:24.964Z,9.00
2018-05-31T14:20:52.442Z,7.65
2018-05-31T14:23:20.678Z,9.65
2018-05-31T14:25:48.162Z,12.15
2018-05-31T14:28:15.650Z,9.40
2018-05-31T14:30:43.142Z,10.93
2018-05-31T14:33:10.609Z,9.07
2018-05-31T14:35:38.115Z,12.35
2018-05-31T14:38:06.362Z,13.23
2018-05-31T14:40:33.850Z,12.50
2018-05-31T14:43:02.098Z,9.18
2018-05-31T14:45:29.574Z,12.60
2018-05-31T14:47:57.818Z,16.02
2018-05-31T14:50:26.169Z,15.77
2018-05-31T14:52:53.676Z,16.35
2018-05-31T14:55:21.141Z,11.57
2018-05-31T14:57:49.405Z,14.77
2018-05-31T15:00:16.883Z,11.57
2018-05-31T15:02:45.142Z,12.35
2018-05-31T15:05:12.652Z,14.95
2018-05-31T15:07:40.145Z,19.62
2018-05-31T15:10:07.634Z,30.65
2018-05-31T15:12:35.861Z,32.47
2018-05-31T15:15:03.354Z,17.27
2018-05-31T15:17:30.883Z,15.35
2018-05-31T15:19:58.449Z,22.73
2018-05-31T15:22:25.926Z,17.33
2018-05-31T15:24:54.176Z,16.83
2018-05-31T15:27:21.661Z,22.20
2018-05-31T15:29:49.905Z,19.12
2018-05-31T15:32:17.402Z,16.50
2018-05-31T15:34:45.653Z,12.95
2018-05-31T15:37:13.156Z,18.98
2018-05-31T15:39:40.650Z,14.35
2018-05-31T15:42:08.178Z,20.90
2018-05-31T15:44:35.653Z,14.73
2018-05-31T15:47:03.119Z,21.02
2018-05-31T15:49:30.603Z,19.05
2018-05-31T15:51:58.061Z,16.67
2018-05-31T15:54:25.546Z,16.83
2018-05-31T15:56:53.138Z,14.23
2018-05-31T15:59:21.402Z,14.40
2018-05-31T16:01:48.893Z,11.50
2018-05-31T16:04:16.362Z,17.90
2018-05-31T16:06:43.881Z,12.40
2018-05-31T16:09:11.361Z,10.88
2018-05-31T16:11:38.826Z,15.70
2018-05-31T16:14:06.310Z,12.07
2018-05-31T16:16:34.545Z,11.60
2018-05-31T16:19:02.080Z,12.88
2018-05-31T16:21:29.561Z,16.17
2018-05-31T16:23:57.076Z,16.55
2018-05-31T16:26:25.306Z,11.60
2018-05-31T16:28:52.811Z,20.85
2018-05-31T16:31:20.346Z,14.13
2018-05-31T16:33:47.829Z,11.60
2018-05-31T16:36:15.318Z,10.25
2018-05-31T16:38:42.806Z,15.25
2018-05-31T16:41:10.278Z,9.60
2018-05-31T16:43:38.505Z,13.30
2018-05-31T16:46:05.985Z,9.10
2018-05-31T16:48:33.447Z,10.82
2018-05-31T16:51:00.925Z,10.30
2018-05-31T16:53:28.438Z,8.68
2018-05-31T16:55:55.897Z,8.73
2018-05-31T16:58:23.408Z,10.13
2018-05-31T17:00:51.633Z,9.88
2018-05-31T17:03:19.105Z,12.10
2018-05-31T17:05:46.590Z,9.85
2018-05-31T17:08:14.838Z,9.52
2018-05-31T17:10:42.326Z,11.05
2018-05-31T17:13:10.583Z,9.50
2018-05-31T17:15:38.091Z,9.00
2018-05-31T17:18:05.678Z,8.40
2018-05-31T17:20:33.172Z,8.10
2018-05-31T17:23:00.642Z,10.88
2018-05-31T17:25:28.878Z,11.90
2018-05-31T17:27:56.354Z,9.07
2018-05-31T17:30:23.814Z,9.43
2018-05-31T17:32:51.293Z,12.43
2018-05-31T17:35:18.769Z,12.57
2018-05-31T17:37:46.254Z,12.05
2018-05-31T17:40:13.727Z,13.75
2018-05-31T17:42:41.232Z,15.98
2018-05-31T17:45:08.780Z,10.35
2018-05-31T17:47:37.026Z,10.40
2018-05-31T17:50:04.496Z,11.93
2018-05-31T17:52:32.735Z,11.93
2018-05-31T17:55:00.242Z,11.70
2018-05-31T17:57:28.491Z,14.75
2018-05-31T17:59:56.346Z,14.55
2018-05-31T18:02:23.828Z,12.80
2018-05-31T18:04:52.074Z,13.70
2018-05-31T18:07:19.599Z,16.33
2018-05-31T18:09:47.082Z,12.45
2018-05-31T18:12:14.668Z,14.48
2018-05-31T18:14:42.268Z,14.32
2018-05-31T18:17:09.759Z,13.10
2018-05-31T18:19:37.241Z,13.40
2018-05-31T18:22:04.717Z,15.43
2018-05-31T18:24:32.973Z,14.35
2018-05-31T18:27:00.446Z,13.00
2018-05-31T18:29:27.931Z,13.65
2018-05-31T18:31:55.396Z,13.52
2018-05-31T18:34:22.877Z,19.62
2018-05-31T18:36:51.129Z,15.45
2018-05-31T18:39:18.638Z,14.98
2018-05-31T18:41:46.149Z,18.15
2018-05-31T18:44:13.634Z,14.40
2018-05-31T18:46:41.101Z,15.43
2018-05-31T18:49:08.571Z,19.60
2018-05-31T18:51:36.049Z,14.35
2018-05-31T18:54:04.282Z,15.52
2018-05-31T18:56:31.757Z,15.50
2018-05-31T18:58:59.227Z,15.00
2018-05-31T19:01:27.466Z,16.70
2018-05-31T19:03:55.001Z,16.85
2018-05-31T19:06:22.463Z,17.87
2018-05-31T19:08:49.981Z,15.43
2018-05-31T19:11:18.585Z,17.10
2018-05-31T19:13:51.597Z,18.62
2018-05-31T19:16:19.092Z,19.25
2018-05-31T19:18:53.092Z,16.15
2018-05-31T19:21:20.700Z,18.92
2018-05-31T19:23:49.681Z,17.27
2018-05-31T19:26:17.936Z,18.87
2018-05-31T19:28:45.420Z,15.18
2018-05-31T19:31:12.890Z,18.83
2018-05-31T19:33:40.394Z,16.00
2018-05-31T19:36:13.484Z,18.80
2018-05-31T19:38:40.942Z,17.33
2018-05-31T19:41:08.430Z,16.05
2018-05-31T19:43:42.274Z,17.70
2018-05-31T19:46:09.781Z,18.08
2018-05-31T19:48:38.017Z,16.37
2018-05-31T19:51:05.482Z,17.02
2018-05-31T19:53:38.684Z,16.20
2018-05-31T19:56:06.138Z,17.73
2018-05-31T19:58:39.355Z,18.30
2018-05-31T20:01:12.622Z,18.95
2018-05-31T20:03:40.098Z,18.48
2018-05-31T20:06:07.562Z,19.12
2018-05-31T20:08:35.830Z,16.02
2018-05-31T20:11:03.355Z,18.10
2018-05-31T20:13:30.855Z,17.17
2018-05-31T20:15:58.319Z,16.62
2018-05-31T20:18:26.579Z,20.83
2018-05-31T20:20:54.111Z,16.12
2018-05-31T20:23:21.549Z,15.93
2018-05-31T20:25:49.018Z,17.87
2018-05-31T20:28:16.502Z,17.25
2018-05-31T20:30:44.012Z,15.93
2018-05-31T20:33:11.478Z,19.20
2018-05-31T20:35:38.969Z,17.90
2018-05-31T20:38:06.439Z,20.02
2018-05-31T20:40:36.864Z,19.83
2018-05-31T20:43:04.471Z,18.55
2018-05-31T20:45:31.961Z,23.77
2018-05-31T20:48:00.515Z,20.70
2018-05-31T20:50:27.974Z,20.00
2018-05-31T20:52:55.455Z,21.67
2018-05-31T20:55:22.949Z,17.87
2018-05-31T20:57:50.467Z,18.55
2018-05-31T21:00:17.943Z,25.15
2018-05-31T21:02:45.418Z,19.87
2018-05-31T21:05:13.669Z,18.87
2018-05-31T21:07:41.146Z,23.30
2018-05-31T21:10:08.622Z,23.15
2018-05-31T21:12:36.872Z,23.60
2018-05-31T21:15:04.366Z,20.60
2018-05-31T21:17:31.866Z,18.87
2018-05-31T21:19:59.359Z,19.12
2018-05-31T21:22:27.616Z,19.25
2018-05-31T21:24:55.091Z,20.73
2018-05-31T21:27:23.361Z,20.15
2018-05-31T21:29:50.830Z,23.10
2018-05-31T21:32:19.054Z,21.80
2018-05-31T21:34:46.537Z,25.73
2018-05-31T21:37:14.014Z,22.30
2018-05-31T21:39:42.266Z,28.23
2018-05-31T21:42:09.758Z,23.45
2018-05-31T21:44:38.008Z,26.02
2018-05-31T21:47:05.478Z,28.12
2018-05-31T21:49:33.731Z,21.95
2018-05-31T21:52:02.001Z,25.02
2018-05-31T21:54:29.480Z,27.02
2018-05-31T21:56:56.945Z,24.42
2018-05-31T21:59:25.193Z,26.75
2018-05-31T22:01:52.676Z,26.33
2018-05-31T22:04:21.063Z,26.75
2018-05-31T22:06:49.322Z,26.45
2018-05-31T22:09:16.785Z,26.23
2018-05-31T22:11:44.622Z,25.52
2018-05-31T22:14:12.079Z,25.45
2018-05-31T22:16:39.579Z,25.88
2018-05-31T22:19:07.823Z,25.23
2018-05-31T22:21:36.798Z,28.67
2018-05-31T22:24:04.276Z,25.25
2018-05-31T22:26:31.780Z,25.83
2018-05-31T22:28:59.247Z,27.17
2018-05-31T22:31:26.720Z,26.92
2018-05-31T22:33:54.219Z,27.35
2018-05-31T22:36:21.717Z,24.05
2018-05-31T22:38:49.203Z,25.00
2018-05-31T22:41:16.678Z,26.92
2018-05-31T22:43:44.164Z,30.50
2018-05-31T22:46:12.394Z,30.25
2018-05-31T22:48:39.887Z,25.92
2018-05-31T22:51:07.355Z,27.48
2018-05-31T22:53:35.609Z,27.92
2018-05-31T22:56:03.085Z,32.90
2018-05-31T22:58:31.338Z,27.98
2018-05-31T23:00:58.831Z,31.80
2018-05-31T23:03:27.098Z,29.98
2018-05-31T23:05:55.381Z,29.37
2018-05-31T23:08:24.366Z,26.15
2018-05-31T23:10:51.906Z,28.58
2018-05-31T23:13:19.403Z,26.02
2018-05-31T23:15:46.887Z,29.52
2018-05-31T23:18:14.379Z,29.55
2018-05-31T23:20:41.841Z,30.33
2018-05-31T23:23:10.107Z,31.33
2018-05-31T23:25:37.568Z,28.08
2018-05-31T23:28:05.045Z,29.58
2018-05-31T23:30:33.308Z,28.80
2018-05-31T23:33:01.579Z,30.17
2018-05-31T23:35:29.046Z,28.60
2018-05-31T23:37:57.321Z,27.92
2018-05-31T23:40:25.563Z,31.17
2018-05-31T23:42:53.044Z,33.90
2018-05-31T23:45:20.622Z,33.08
2018-05-31T23:47:48.875Z,30.85
2018-05-31T23:50:16.341Z,29.42
2018-05-31T23:52:44.581Z,32.25
2018-05-31T23:55:12.071Z,34.40
2018-05-31T23:57:39.535Z,32.92
